Terminal Aerodrome Forecast
Issued by NWS

Home | Current Version | Previous Version | Text Only | Print | Product List | Glossary On
Versions: 1 2 3 4 5 6 7 8 9 10 11 12 13 14 15 16 17 18 19 20 21 22 23 24 25 26 27 28 29 30 31 32 33 34 35 36 37 38 39 40 41 42 43 44 45 46 47 48
000
FTUS45 KBOU 211140
TAFAPA
TAF
KAPA 211140Z 2112/2212 31008KT P6SM OVC050
     FM211500 06008KT P6SM OVC050
     FM211800 15011KT P6SM SCT040 OVC060 PROB30 2121/2203 -SHRA
      BKN040
     FM220400 17011KT P6SM SCT050 BKN080
     FM220800 17014G22KT P6SM SCT080 BKN140=

USA.gov is the U.S. government's official web portal to all federal, state and local government web resources and services.